Meteorología y climatología de Navarra
Datos de la estación - Meteo Navarra

Estación de Urbasa GN

Altitud 886 m.


Datos desde el 02/08/2020 hasta el 03/08/2020 en horario solar
Los datos son PROVISIONALES

Anterior Página 1 de 1 Siguiente Descargar: Formato para Excel 2000 o superior   Formato csv   Formato para OpenOffice Calc
Fecha Temperatura Humedad relativa Radiación global Insolación Precipitación Vel. viento 10 m Vel. viento 10 m Dir. viento 10 m
ºC % W/m² s l/m² m/s km/h º
02/08/2020 0:00 13.9 98 0.0 0 0.3 2.1 7.6 359
02/08/2020 0:10 13.8 99 0.0 0 0.0 2.0 7.1 355
02/08/2020 0:20 13.6 99 0.0 0 0.0 1.9 7.0 7
02/08/2020 0:30 13.6 99 0.0 0 0.1 1.8 6.5 19
02/08/2020 0:40 13.5 98 0.0 0 0.0 2.1 7.4 358
02/08/2020 0:50 13.5 99 0.0 0 0.0 1.8 6.4 2
02/08/2020 1:00 13.4 99 0.0 0 0.1 1.8 6.6 10
02/08/2020 1:10 13.4 99 0.0 0 0.0 1.5 5.5 7
02/08/2020 1:20 13.3 98 0.0 0 0.1 1.3 4.5 11
02/08/2020 1:30 13.4 99 0.0 0 0.0 1.3 4.6 26
02/08/2020 1:40 13.5 99 0.0 0 0.0 1.4 5.1 2
02/08/2020 1:50 13.5 99 0.0 0 0.0 1.5 5.4 6
02/08/2020 2:00 13.6 99 0.0 0 0.1 1.9 6.8 343
02/08/2020 2:10 13.6 99 0.0 0 0.0 1.7 6.0 359
02/08/2020 2:20 13.6 99 0.0 0 0.1 1.8 6.6 353
02/08/2020 2:30 13.6 99 0.0 0 0.1 2.4 8.5 355
02/08/2020 2:40 13.5 99 0.0 0 0.3 2.2 7.7 352
02/08/2020 2:50 13.5 99 0.0 0 0.2 2.2 7.8 12
02/08/2020 3:00 13.5 99 0.0 0 0.2 2.5 9.0 357
02/08/2020 3:10 13.5 99 0.0 0 0.0 1.9 6.9 358
02/08/2020 3:20 13.4 99 0.0 0 0.0 2.5 9.0 0
02/08/2020 3:30 13.5 99 0.0 0 0.0 1.8 6.6 356
02/08/2020 3:40 13.5 99 0.0 0 0.0 1.7 6.2 23
02/08/2020 3:50 13.5 99 0.0 0 0.0 1.7 6.0 12
02/08/2020 4:00 13.5 99 0.0 0 0.0 1.7 6.3 356
02/08/2020 4:10 13.4 99 0.0 0 0.0 1.9 7.0 352
02/08/2020 4:20 13.4 99 0.0 0 0.0 2.0 7.3 356
02/08/2020 4:30 13.4 99 0.0 0 0.0 1.9 6.9 359
02/08/2020 4:40 13.5 99 0.0 0 0.1 1.8 6.6 5
02/08/2020 4:50 13.5 99 0.0 0 0.2 1.8 6.6 7
02/08/2020 5:00 13.5 99 0.0 0 0.4 2.1 7.5 359
02/08/2020 5:10 13.5 99 0.0 0 0.2 1.8 6.4 6
02/08/2020 5:20 13.3 99 0.0 0 0.0 2.7 9.6 6
02/08/2020 5:30 13.1 99 0.0 0 0.0 2.0 7.3 357
02/08/2020 5:40 13.1 99 0.0 0 0.0 2.4 8.6 357
02/08/2020 5:50 13.0 99 9.1 0 0.0 1.9 6.8 359
02/08/2020 6:00 13.0 99 23.2 0 0.1 2.1 7.5 3
02/08/2020 6:10 12.9 99 27.2 0 0.0 2.4 8.5 8
02/08/2020 6:20 13.0 99 31.8 0 0.0 2.3 8.2 1
02/08/2020 6:30 13.0 99 27.6 0 0.1 2.1 7.4 1
02/08/2020 6:40 13.0 99 40.9 0 0.1 2.2 8.0 0
02/08/2020 6:50 13.0 99 60.1 0 0.0 2.5 9.1 3
02/08/2020 7:00 13.1 99 64.0 0 0.1 2.0 7.2 7
02/08/2020 7:10 13.2 99 73.9 0 0.0 2.0 7.2 1
02/08/2020 7:20 13.1 99 93.4 0 0.0 1.8 6.3 2
02/08/2020 7:30 13.2 99 95.9 0 0.1 1.9 6.7 342
02/08/2020 7:40 13.2 99 95.2 0 0.0 2.0 7.1 7
02/08/2020 7:50 13.0 99 90.4 0 0.1 2.2 7.7 2
02/08/2020 8:00 13.1 99 75.5 0 0.0 2.9 10.4 10
02/08/2020 8:10 13.1 99 86.7 0 0.2 2.1 7.7 9
02/08/2020 8:20 13.1 99 128.2 0 0.3 2.0 7.2 2
02/08/2020 8:30 13.2 99 143.5 0 0.1 2.4 8.5 356
02/08/2020 8:40 12.8 99 106.7 0 0.3 2.7 9.5 320
02/08/2020 8:50 12.5 99 178.7 0 0.1 2.9 10.6 340
02/08/2020 9:00 12.5 99 289.7 60 0.0 3.3 12.0 359
02/08/2020 9:10 12.5 99 183.7 0 0.0 2.4 8.7 346
02/08/2020 9:20 12.5 99 127.4 0 0.0 2.2 8.0 333
02/08/2020 9:30 12.5 99 120.3 0 0.0 2.2 8.0 357
02/08/2020 9:40 12.5 99 105.3 0 0.0 1.8 6.6 2
02/08/2020 9:50 12.6 99 98.2 0 0.0 2.0 7.0 339
02/08/2020 10:00 12.6 99 114.0 0 0.0 2.1 7.7 324
02/08/2020 10:10 12.7 99 139.6 0 0.0 1.5 5.5 336
02/08/2020 10:20 12.7 99 149.3 0 0.0 2.0 7.2 359
02/08/2020 10:30 12.8 99 217.3 0 0.0 2.6 9.3 344
02/08/2020 10:40 12.7 99 202.7 0 0.0 1.9 6.9 16
02/08/2020 10:50 12.8 99 262.9 0 0.0 2.4 8.6 358
02/08/2020 11:00 13.0 99 239.1 0 0.0 2.1 7.5 336
02/08/2020 11:10 13.0 99 232.4 0 0.0 2.6 9.2 322
02/08/2020 11:20 12.8 98 293.6 0 0.0 2.6 9.5 6
02/08/2020 11:30 13.1 99 311.2 0 0.0 2.3 8.4 347
02/08/2020 11:40 13.4 98 387.6 0 0.0 2.3 8.4 5
02/08/2020 11:50 13.4 98 274.2 0 0.0 2.0 7.1 348
02/08/2020 12:00 13.4 98 183.5 0 0.0 1.6 5.8 342
02/08/2020 12:10 13.3 98 197.7 0 0.0 2.4 8.7 0
02/08/2020 12:20 13.4 98 169.3 0 0.0 2.4 8.5 349
02/08/2020 12:30 13.4 98 180.6 0 0.1 2.0 7.1 9
02/08/2020 12:40 13.2 97 249.8 0 0.1 2.8 10.0 353
02/08/2020 12:50 13.0 97 232.1 0 0.0 2.4 8.5 23
02/08/2020 13:00 13.2 97 204.9 0 0.0 1.6 5.9 2
02/08/2020 13:10 13.1 96 199.8 0 0.0 2.2 8.1 343
02/08/2020 13:20 13.3 96 174.4 0 0.0 2.0 7.2 2
02/08/2020 13:30 13.4 96 266.2 0 0.0 2.0 7.0 11
02/08/2020 13:40 13.6 96 360.9 0 0.0 2.3 8.2 12
02/08/2020 13:50 13.8 96 156.9 0 0.0 1.9 6.8 15
02/08/2020 14:00 13.6 96 200.4 0 0.0 1.4 5.1 28
02/08/2020 14:10 13.8 96 313.5 0 0.0 2.1 7.4 9
02/08/2020 14:20 14.0 96 149.3 0 0.0 1.5 5.4 357
02/08/2020 14:30 13.7 96 100.0 0 0.3 2.6 9.4 13
02/08/2020 14:40 13.3 96 175.8 0 0.0 2.6 9.3 5
02/08/2020 14:50 13.4 96 234.4 32 0.0 1.9 6.9 350
02/08/2020 15:00 13.5 96 243.0 32 0.0 2.8 10.0 1
02/08/2020 15:10 13.6 96 382.3 218 0.0 2.2 7.8 355
02/08/2020 15:20 14.0 94 364.2 178 0.0 2.6 9.5 18
02/08/2020 15:30 14.0 93 259.6 18 0.0 2.6 9.4 15
02/08/2020 15:40 13.7 93 172.9 0 0.0 2.5 8.8 8
02/08/2020 15:50 13.6 94 217.5 0 0.0 3.0 10.6 8
02/08/2020 16:00 13.8 93 219.9 0 0.0 2.3 8.1 15
02/08/2020 16:10 13.8 93 154.6 0 0.0 2.0 7.0 350
02/08/2020 16:20 13.8 93 178.2 0 0.0 1.8 6.4 332
02/08/2020 16:30 13.9 92 118.0 0 0.0 2.0 7.3 327
02/08/2020 16:40 13.9 92 133.4 0 0.0 1.9 6.7 329
02/08/2020 16:50 14.1 92 174.2 0 0.0 2.7 9.5 325
02/08/2020 17:00 13.9 92 86.4 0 0.0 2.1 7.6 348
02/08/2020 17:10 13.8 93 74.8 0 0.0 2.7 9.7 353
02/08/2020 17:20 13.8 92 108.0 0 0.0 2.4 8.5 328
02/08/2020 17:30 14.0 90 130.6 0 0.0 2.7 9.7 332
02/08/2020 17:40 14.0 89 58.4 0 0.0 1.8 6.5 323
02/08/2020 17:50 13.8 90 0.4 0 0.0 2.6 9.5 349
02/08/2020 18:00 13.4 93 16.6 0 0.0 2.4 8.6 11
02/08/2020 18:10 13.2 94 14.7 0 0.0 2.9 10.5 18
02/08/2020 18:20 13.0 94 34.7 0 0.0 2.1 7.5 11
02/08/2020 18:30 13.0 95 30.4 0 0.0 1.7 6.2 18
02/08/2020 18:40 13.0 95 17.6 0 0.0 1.5 5.5 348
02/08/2020 18:50 13.1 94 0.0 0 0.0 1.9 6.9 327
02/08/2020 19:00 13.1 95 0.0 0 0.0 2.0 7.0 350
02/08/2020 19:10 13.0 96 0.0 0 0.2 2.1 7.4 17
02/08/2020 19:20 12.8 97 0.0 0 0.1 2.2 8.1 17
02/08/2020 19:30 12.8 97 0.0 0 0.2 2.4 8.7 24
02/08/2020 19:40 12.7 97 0.0 0 0.0 2.7 9.6 16
02/08/2020 19:50 12.7 97 0.0 0 0.0 1.9 6.7 12
02/08/2020 20:00 12.8 97 0.0 0 0.0 1.8 6.4 3
02/08/2020 20:10 12.6 97 0.0 0 0.0 2.4 8.5 19
02/08/2020 20:20 12.6 97 0.0 0 0.0 1.7 5.9 9
02/08/2020 20:30 12.6 97 0.0 0 0.0 1.6 5.8 12
02/08/2020 20:40 12.6 97 0.0 0 0.0 1.5 5.5 19
02/08/2020 20:50 12.5 97 0.0 0 0.0 1.4 4.9 358
02/08/2020 21:00 12.5 97 0.0 0 0.0 2.0 7.3 356
02/08/2020 21:10 12.4 97 0.0 0 0.0 1.6 5.9 4
02/08/2020 21:20 12.5 97 0.0 0 0.0 1.6 5.7 21
02/08/2020 21:30 12.5 97 0.0 0 0.0 1.9 6.8 28
02/08/2020 21:40 12.4 97 0.0 0 0.0 2.4 8.7 12
02/08/2020 21:50 12.3 97 0.0 0 0.0 1.8 6.6 19
02/08/2020 22:00 12.3 97 0.0 0 0.0 2.8 10.0 9
02/08/2020 22:10 12.3 96 0.0 0 0.0 2.3 8.4 6
02/08/2020 22:20 12.4 96 0.0 0 0.0 2.0 7.3 356
02/08/2020 22:30 12.4 96 0.0 0 0.0 1.8 6.6 4
02/08/2020 22:40 12.3 97 0.0 0 0.0 2.0 7.1 9
02/08/2020 22:50 12.3 97 0.0 0 0.0 1.8 6.6 8
02/08/2020 23:00 12.2 97 0.0 0 0.0 1.5 5.3 10
02/08/2020 23:10 12.2 97 0.0 0 0.0 2.3 8.2 9
02/08/2020 23:20 12.3 97 0.0 0 0.1 2.2 7.9 11
02/08/2020 23:30 12.2 97 0.0 0 0.2 1.9 6.8 0
02/08/2020 23:40 12.1 98 0.0 0 0.0 2.6 9.4 6
02/08/2020 23:50 12.1 98 0.0 0 0.0 2.2 7.8 8
Anterior Página 1 de 1 Siguiente

NOTA: Tipo de datos según el color:
   - Valores diarios o 10 minutos correctos
   - Valores diarios calculados a partir de un número de datos 10 minutos menor que 144 y mayor que 120, o de un número de datos semihorarios menor que 48 y mayor que 40 (caso de las estaciones de INTIA y del Ministerio)
   - Valores diez minutos estimados


Contacto        Enlaces        Aviso legal